Vestborg — E5U2070 — position and weather

sailwx.info

Track history (hours):
 
Tides and Currents Weather Stations Pressure Air Temp Water Temp Dewpoint Dewpoint Depression Visibility Wind Speed Wind Dir Waves Ship Positions

Vestborg

Last reported at 2016-Jul-25 04:28 UTC. Time now 2016-Jul-25 06:15 UTC.
Position N 69°54' E 030°11'.

Length 66 m; draft 3.5 m.

Type: Cargo ship. MMSI: 518120000.

Date/timePositionNaut miles runAvg speedWind from/ knotsBaromVisibWave heightAir tempDewpointWater temp
2016-Jul-25 04:28N 69°54' E 030°11'8 9.2
2016-Jul-25 03:33N 69°60' E 030°27'9 9.4
2016-Jul-25 02:33N 70°07' E 030°44'10 9.2
2016-Jul-25 01:30N 70°15' E 031°02'20 0.9
2016-Jul-24 03:33N 69°60' E 030°27'9 8.5
2016-Jul-24 02:33N 69°53' E 030°10'8 8.4
2016-Jul-24 01:33N 69°45' E 030°04'2 1.8
2016-Jul-24 00:33N 69°44' E 030°02'0 0.0
2016-Jul-23 23:33N 69°44' E 030°02'0 0.0
2016-Jul-23 22:33N 69°44' E 030°02'0 0.0
2016-Jul-23 21:33N 69°44' E 030°02'0 0.0
2016-Jul-23 20:33N 69°44' E 030°02'0 0.0
2016-Jul-23 19:33N 69°44' E 030°02'7 6.6
2016-Jul-23 18:34N 69°50' E 030°07'8 8.3
2016-Jul-23 17:33N 69°57' E 030°18'9 9.0
2016-Jul-23 16:33N 70°04' E 030°35'9 9.1
2016-Jul-23 15:33N 70°11' E 030°52'  
2016-Jul-16 06:28N 69°18' E 017°58'12 6.1
2016-Jul-16 04:33N 69°08' E 017°43'8 7.5
2016-Jul-16 03:32N 69°05' E 017°24'23 7.9
2016-Jul-16 00:33N 68°45' E 016°47'  
Track history (hours):
 
Tides and Currents Weather Stations Pressure Air Temp Water Temp Dewpoint Dewpoint Depression Visibility Wind Speed Wind Dir Waves Ship Positions

Vestborg

Last reported at 2016-Jul-25 04:28 UTC. Time now 2016-Jul-25 06:15 UTC.
Position N 69°54' E 030°11'.

Length 66 m; draft 3.5 m.

Type: Cargo ship. MMSI: 518120000.

Date/timePositionNaut miles runAvg speedWind from/ knotsBaromVisibWave heightAir tempDewpointWater temp
2016-Jul-25 04:28N 69°54' E 030°11'8 9.2
2016-Jul-25 03:33N 69°60' E 030°27'9 9.4
2016-Jul-25 02:33N 70°07' E 030°44'10 9.2
2016-Jul-25 01:30N 70°15' E 031°02'20 0.9
2016-Jul-24 03:33N 69°60' E 030°27'9 8.5
2016-Jul-24 02:33N 69°53' E 030°10'8 8.4
2016-Jul-24 01:33N 69°45' E 030°04'2 1.8
2016-Jul-24 00:33N 69°44' E 030°02'0 0.0
2016-Jul-23 23:33N 69°44' E 030°02'0 0.0
2016-Jul-23 22:33N 69°44' E 030°02'0 0.0
2016-Jul-23 21:33N 69°44' E 030°02'0 0.0
2016-Jul-23 20:33N 69°44' E 030°02'0 0.0
2016-Jul-23 19:33N 69°44' E 030°02'7 6.6
2016-Jul-23 18:34N 69°50' E 030°07'8 8.3
2016-Jul-23 17:33N 69°57' E 030°18'9 9.0
2016-Jul-23 16:33N 70°04' E 030°35'9 9.1
2016-Jul-23 15:33N 70°11' E 030°52'  
2016-Jul-16 06:28N 69°18' E 017°58'12 6.1
2016-Jul-16 04:33N 69°08' E 017°43'8 7.5
2016-Jul-16 03:32N 69°05' E 017°24'23 7.9
2016-Jul-16 00:33N 68°45' E 016°47'  

Dump ship's entire track history